AirNav   ATP
 
 1396 users online  

0P1 Van Pak Airport
Prairie View, Kansas, USA

GOING TO PRAIRIE VIEW?


FAA INFORMATION EFFECTIVE 06 DECEMBER 2018

Location

FAA Identifier: 0P1
Lat/Long: 39-49-54.1000N / 099-34-06.4000W
39-49.901667N / 099-34.106667W
39.8316944 / -99.5684444
(estimated)
Elevation: 2213 ft. / 674.5 m (surveyed)
Variation: 08E (1985)
Time zone: UTC -6 (UTC -5 during Daylight Saving Time)
Zip code: 67664

Airport Operations

Airport use: Open to the public
Activation date: 02/1965
Control tower: no
ARTCC: DENVER CENTER
FSS: WICHITA FLIGHT SERVICE STATION
NOTAMs facility: ICT (NOTAM-D service available)
Attendance: UNATNDD
Wind indicator: yes
Segmented circle: no

Airport Communications

CTAF: 122.9
WX AWOS-3PT at PHG (13 nm SE): 119.125 (785-543-8960)
WX AWOS-3 at NRN (15 nm W): 118.275 (785-874-4277)

Nearby radio navigation aids

NDB name  Hdg/Dist  Freq  Var  ID
NORTON087/14.923008ENRN -. .-. -.
HARRY STRUNK131/39.238905ECSB -.-. ... -...

Airport Services

Airframe service: NONE
Powerplant service: NONE
Bottled oxygen: NONE
Bulk oxygen: NONE

Runway Information

Runway 16/34

Dimensions: 2590 x 128 ft. / 789 x 39 m
Surface: turf, in fair condition
RUNWAY 16  RUNWAY 34
Latitude: 39-50.110333N39-49.694333N
Longitude: 099-34.167667W099-34.045167W
Traffic pattern: leftleft
Obstructions: 6 ft. crops, 5 ft. from runway15 ft. road, 15 ft. from runway, 1:1 slope to clear

Airport Ownership and Management from official FAA records

Ownership: Privately-owned
Owner: BUFORD J VAN LOENEN
BOX 365
PRAIRIE VIEW, KS 67664
Phone 785-973-2345
Manager: ROGER VAN LOENEN
BOX 404
PRAIRIE VIEW, KS 67664
Phone 785-973-2252

Airport Operational Statistics

Aircraft operations: 150/year *
67% transient general aviation
33% local general aviation
* for 12-month period ending 18 September 2018

Additional Remarks

NO PHONE AT ARPT.

Instrument Procedures

There are no published instrument procedures at 0P1.

Some nearby airports with instrument procedures:

KPHG - Phillipsburg Municipal Airport (13 nm SE)
KNRN - Norton Municipal Airport (15 nm W)
4D9 - Alma Municipal Airport (20 nm NE)
KHLC - Hill City Municipal Airport (30 nm SW)
KRCP - Rooks County Regional Airport (32 nm SE)
 
Loc | Ops | Rwys | IFR | FBO | Links
Com | Nav | Svcs | Stats | Notes

Kansas City Aviation Department
 
Area around 0P1 (Van Pak Airport)
 
Road maps at: MapQuest Bing Google
 
Aerial photo
WARNING: Photo may not be current or correct
Aerial photo of 0P1 (Van Pak Airport)
Photo by Von Rothenberger
Photo taken 23-Jul-2006

Do you have a better or more recent aerial photo of Van Pak Airport that you would like to share? If so, please send us your photo.

 
Sectional chart

 
Airport distance calculator
Flying to Van Pak Airport? Find the distance to fly.

From to 0P1

Sunrise and sunset
Times for 18-Dec-2018
 Local
(UTC-6)
 Zulu
(UTC)
Morning civil twilight07:2513:25
Sunrise07:5513:55
Sunset17:1423:14
Evening civil twilight17:4523:45

Current date and time
Zulu (UTC)  18-Dec-2018 17:53:01
Local (UTC-6)  18-Dec-2018 11:53:01
 
METAR
KHLC 
30nm SW 
181653Z AUTO 29006KT 10SM OVC120 08/M02 A2995 RMK AO2 SLP147 T00781017
KHDE 
39nm N 
181735Z AUTO 00000KT 10SM OVC120 04/00 A2990 RMK AO2 T00401002
KOIN 
44nm W 
181735Z AUTO 32012KT 10SM CLR 06/M01 A2996 RMK AO1 T00611012
TAF
NOTAMs
Click for the latest NOTAMs
NOTAMs are issued by the DoD/FAA and will open in a separate window not controlled by AirNav.

 

 
 

Would you like to see your business listed on this page?

 If your business provides an interesting product or service to pilots, flight crews, aircraft, or users of the Van Pak Airport, you should consider listing it here.  To start the listing process, click on the button below
 
Add a business
 

Other Pages about Van Pak Airport

Update a link
 
Copyright © AirNav, LLC. All rights reserved. Privacy Policy  Contact